sensor_id;sensor_type;location;lat;lon;timestamp;P1;durP1;ratioP1;P2;durP2;ratioP2
67930;SDS011;63902;52.000;5.954;2024-03-23T00:52:39;20.15;;;6.05;;
67930;SDS011;63902;52.000;5.954;2024-03-23T00:54:41;29.13;;;6.88;;
67930;SDS011;63902;52.000;5.954;2024-03-23T00:55:42;21.58;;;6.35;;
67930;SDS011;63902;52.000;5.954;2024-03-23T00:56:42;17.00;;;6.20;;
67930;SDS011;63902;52.000;5.954;2024-03-23T00:57:42;20.05;;;5.65;;
67930;SDS011;63902;52.000;5.954;2024-03-23T00:58:43;17.45;;;5.93;;
67930;SDS011;63902;52.000;5.954;2024-03-23T00:59:43;22.67;;;7.10;;
67930;SDS011;63902;52.000;5.954;2024-03-23T01:00:43;24.50;;;6.47;;
67930;SDS011;63902;52.000;5.954;2024-03-23T01:01:44;21.50;;;6.50;;
67930;SDS011;63902;52.000;5.954;2024-03-23T01:02:44;20.23;;;6.85;;
67930;SDS011;63902;52.000;5.954;2024-03-23T01:03:44;17.25;;;6.10;;
67930;SDS011;63902;52.000;5.954;2024-03-23T01:04:44;21.38;;;6.72;;
67930;SDS011;63902;52.000;5.954;2024-03-23T01:05:45;25.50;;;6.63;;
67930;SDS011;63902;52.000;5.954;2024-03-23T01:06:45;21.38;;;6.60;;
67930;SDS011;63902;52.000;5.954;2024-03-23T01:07:46;24.17;;;6.20;;
67930;SDS011;63902;52.000;5.954;2024-03-23T01:08:46;22.27;;;6.20;;
67930;SDS011;63902;52.000;5.954;2024-03-23T01:09:46;25.73;;;6.45;;
67930;SDS011;63902;52.000;5.954;2024-03-23T01:10:59;15.48;;;6.25;;
67930;SDS011;63902;52.000;5.954;2024-03-23T01:12:00;27.30;;;7.70;;
67930;SDS011;63902;52.000;5.954;2024-03-23T01:13:00;28.25;;;7.68;;
67930;SDS011;63902;52.000;5.954;2024-03-23T01:14:01;20.92;;;6.93;;
67930;SDS011;63902;52.000;5.954;2024-03-23T01:15:01;19.95;;;7.35;;
67930;SDS011;63902;52.000;5.954;2024-03-23T01:16:02;32.15;;;6.90;;
67930;SDS011;63902;52.000;5.954;2024-03-23T01:17:02;23.77;;;7.03;;
67930;SDS011;63902;52.000;5.954;2024-03-23T01:18:02;22.45;;;7.00;;
67930;SDS011;63902;52.000;5.954;2024-03-23T01:19:03;31.23;;;7.30;;
67930;SDS011;63902;52.000;5.954;2024-03-23T01:20:03;29.25;;;7.63;;
67930;SDS011;63902;52.000;5.954;2024-03-23T01:21:04;23.70;;;6.57;;
67930;SDS011;63902;52.000;5.954;2024-03-23T01:22:04;23.17;;;6.93;;
67930;SDS011;63902;52.000;5.954;2024-03-23T01:23:05;20.80;;;6.45;;
67930;SDS011;63902;52.000;5.954;2024-03-23T01:24:05;26.13;;;7.38;;
67930;SDS011;63902;52.000;5.954;2024-03-23T01:25:05;21.25;;;8.48;;
67930;SDS011;63902;52.000;5.954;2024-03-23T01:26:06;20.98;;;8.15;;
67930;SDS011;63902;52.000;5.954;2024-03-23T01:27:06;29.98;;;8.43;;
67930;SDS011;63902;52.000;5.954;2024-03-23T01:28:07;24.52;;;8.75;;
67930;SDS011;63902;52.000;5.954;2024-03-23T01:29:07;24.45;;;8.20;;
67930;SDS011;63902;52.000;5.954;2024-03-23T01:30:08;22.45;;;7.07;;
67930;SDS011;63902;52.000;5.954;2024-03-23T01:31:08;28.08;;;8.07;;
67930;SDS011;63902;52.000;5.954;2024-03-23T01:32:08;25.77;;;7.97;;
67930;SDS011;63902;52.000;5.954;2024-03-23T01:33:09;32.53;;;7.88;;
67930;SDS011;63902;52.000;5.954;2024-03-23T01:34:09;24.15;;;7.30;;
67930;SDS011;63902;52.000;5.954;2024-03-23T01:35:09;23.25;;;7.72;;
67930;SDS011;63902;52.000;5.954;2024-03-23T01:36:10;23.05;;;8.57;;
67930;SDS011;63902;52.000;5.954;2024-03-23T01:37:10;20.10;;;7.95;;
67930;SDS011;63902;52.000;5.954;2024-03-23T01:38:10;21.52;;;7.75;;
67930;SDS011;63902;52.000;5.954;2024-03-23T01:39:11;26.58;;;8.30;;
67930;SDS011;63902;52.000;5.954;2024-03-23T01:40:11;23.35;;;7.70;;
67930;SDS011;63902;52.000;5.954;2024-03-23T01:41:12;22.48;;;6.80;;
67930;SDS011;63902;52.000;5.954;2024-03-23T01:42:12;23.83;;;8.32;;
67930;SDS011;63902;52.000;5.954;2024-03-23T01:43:12;22.80;;;8.10;;
67930;SDS011;63902;52.000;5.954;2024-03-23T01:44:13;25.17;;;8.55;;
67930;SDS011;63902;52.000;5.954;2024-03-23T01:45:13;26.83;;;8.98;;
67930;SDS011;63902;52.000;5.954;2024-03-23T01:46:13;23.08;;;8.68;;
67930;SDS011;63902;52.000;5.954;2024-03-23T01:47:13;20.85;;;8.48;;
67930;SDS011;63902;52.000;5.954;2024-03-23T01:48:14;35.30;;;8.63;;
67930;SDS011;63902;52.000;5.954;2024-03-23T01:49:14;22.67;;;8.25;;
67930;SDS011;63902;52.000;5.954;2024-03-23T01:50:15;19.88;;;8.48;;
67930;SDS011;63902;52.000;5.954;2024-03-23T01:51:16;19.95;;;8.75;;
67930;SDS011;63902;52.000;5.954;2024-03-23T01:52:17;20.63;;;8.13;;
67930;SDS011;63902;52.000;5.954;2024-03-23T01:53:17;23.55;;;8.30;;
67930;SDS011;63902;52.000;5.954;2024-03-23T01:54:18;21.45;;;7.38;;
67930;SDS011;63902;52.000;5.954;2024-03-23T01:55:19;23.25;;;8.93;;
67930;SDS011;63902;52.000;5.954;2024-03-23T01:56:20;22.60;;;8.25;;
67930;SDS011;63902;52.000;5.954;2024-03-23T01:57:20;30.67;;;9.18;;
67930;SDS011;63902;52.000;5.954;2024-03-23T01:58:21;26.65;;;9.40;;
67930;SDS011;63902;52.000;5.954;2024-03-23T01:59:21;37.22;;;9.52;;
67930;SDS011;63902;52.000;5.954;2024-03-23T02:00:22;19.30;;;8.60;;
67930;SDS011;63902;52.000;5.954;2024-03-23T02:01:22;27.52;;;8.80;;
67930;SDS011;63902;52.000;5.954;2024-03-23T02:02:23;26.20;;;9.02;;
67930;SDS011;63902;52.000;5.954;2024-03-23T02:03:26;33.05;;;8.07;;
67930;SDS011;63902;52.000;5.954;2024-03-23T02:04:27;29.23;;;8.75;;
67930;SDS011;63902;52.000;5.954;2024-03-23T02:05:27;26.63;;;8.32;;
67930;SDS011;63902;52.000;5.954;2024-03-23T02:06:28;23.73;;;9.07;;
67930;SDS011;63902;52.000;5.954;2024-03-23T02:07:28;36.83;;;9.05;;
67930;SDS011;63902;52.000;5.954;2024-03-23T02:08:29;28.52;;;9.48;;
67930;SDS011;63902;52.000;5.954;2024-03-23T02:09:30;27.60;;;9.20;;
67930;SDS011;63902;52.000;5.954;2024-03-23T02:10:31;29.83;;;9.05;;
67930;SDS011;63902;52.000;5.954;2024-03-23T02:11:31;30.13;;;9.50;;
67930;SDS011;63902;52.000;5.954;2024-03-23T02:12:31;34.03;;;9.35;;
67930;SDS011;63902;52.000;5.954;2024-03-23T02:13:32;23.52;;;8.50;;
67930;SDS011;63902;52.000;5.954;2024-03-23T02:14:32;29.52;;;9.35;;
67930;SDS011;63902;52.000;5.954;2024-03-23T02:15:32;24.08;;;8.32;;
67930;SDS011;63902;52.000;5.954;2024-03-23T02:16:33;29.92;;;9.55;;
67930;SDS011;63902;52.000;5.954;2024-03-23T02:17:33;22.50;;;8.85;;
67930;SDS011;63902;52.000;5.954;2024-03-23T02:18:34;21.95;;;8.77;;
67930;SDS011;63902;52.000;5.954;2024-03-23T02:19:35;30.48;;;8.57;;
67930;SDS011;63902;52.000;5.954;2024-03-23T02:20:36;35.03;;;9.57;;
67930;SDS011;63902;52.000;5.954;2024-03-23T02:21:36;36.45;;;9.27;;
67930;SDS011;63902;52.000;5.954;2024-03-23T02:22:37;28.70;;;9.82;;
67930;SDS011;63902;52.000;5.954;2024-03-23T02:23:37;24.70;;;8.93;;
67930;SDS011;63902;52.000;5.954;2024-03-23T02:24:38;28.83;;;9.63;;
67930;SDS011;63902;52.000;5.954;2024-03-23T02:25:38;29.08;;;8.70;;
67930;SDS011;63902;52.000;5.954;2024-03-23T02:26:38;25.30;;;9.27;;
67930;SDS011;63902;52.000;5.954;2024-03-23T02:27:39;26.10;;;9.05;;
67930;SDS011;63902;52.000;5.954;2024-03-23T02:28:39;21.13;;;8.57;;
67930;SDS011;63902;52.000;5.954;2024-03-23T02:29:39;21.95;;;8.98;;
67930;SDS011;63902;52.000;5.954;2024-03-23T02:30:39;25.23;;;8.68;;
67930;SDS011;63902;52.000;5.954;2024-03-23T02:31:40;26.33;;;8.68;;
67930;SDS011;63902;52.000;5.954;2024-03-23T02:32:40;26.52;;;8.93;;
67930;SDS011;63902;52.000;5.954;2024-03-23T02:33:40;27.27;;;9.88;;
67930;SDS011;63902;52.000;5.954;2024-03-23T02:34:41;19.55;;;8.55;;
67930;SDS011;63902;52.000;5.954;2024-03-23T02:35:41;23.92;;;10.38;;
67930;SDS011;63902;52.000;5.954;2024-03-23T02:36:42;21.70;;;8.98;;
67930;SDS011;63902;52.000;5.954;2024-03-23T02:37:42;27.15;;;9.35;;
67930;SDS011;63902;52.000;5.954;2024-03-23T02:38:42;24.15;;;9.23;;
67930;SDS011;63902;52.000;5.954;2024-03-23T02:39:43;23.00;;;9.52;;
67930;SDS011;63902;52.000;5.954;2024-03-23T02:40:43;26.05;;;8.85;;
67930;SDS011;63902;52.000;5.954;2024-03-23T02:41:43;21.98;;;9.30;;
67930;SDS011;63902;52.000;5.954;2024-03-23T02:42:43;23.80;;;8.90;;
67930;SDS011;63902;52.000;5.954;2024-03-23T02:43:44;28.05;;;8.88;;
67930;SDS011;63902;52.000;5.954;2024-03-23T02:44:44;23.23;;;8.38;;
67930;SDS011;63902;52.000;5.954;2024-03-23T02:45:45;32.28;;;9.07;;
67930;SDS011;63902;52.000;5.954;2024-03-23T02:46:45;23.77;;;8.82;;
67930;SDS011;63902;52.000;5.954;2024-03-23T02:47:45;28.02;;;9.13;;
67930;SDS011;63902;52.000;5.954;2024-03-23T02:48:48;24.45;;;9.02;;
67930;SDS011;63902;52.000;5.954;2024-03-23T02:49:48;23.58;;;9.40;;
67930;SDS011;63902;52.000;5.954;2024-03-23T02:50:49;26.35;;;9.90;;
67930;SDS011;63902;52.000;5.954;2024-03-23T02:51:49;31.65;;;10.48;;
67930;SDS011;63902;52.000;5.954;2024-03-23T02:52:49;20.85;;;7.85;;
67930;SDS011;63902;52.000;5.954;2024-03-23T02:53:50;34.95;;;8.88;;
67930;SDS011;63902;52.000;5.954;2024-03-23T02:54:51;22.85;;;8.88;;
67930;SDS011;63902;52.000;5.954;2024-03-23T02:55:51;26.33;;;8.57;;
67930;SDS011;63902;52.000;5.954;2024-03-23T02:56:51;20.95;;;8.80;;
67930;SDS011;63902;52.000;5.954;2024-03-23T02:57:52;22.15;;;7.80;;
67930;SDS011;63902;52.000;5.954;2024-03-23T02:58:52;29.23;;;8.73;;
67930;SDS011;63902;52.000;5.954;2024-03-23T02:59:52;23.70;;;9.25;;
67930;SDS011;63902;52.000;5.954;2024-03-23T03:00:53;21.13;;;8.95;;
67930;SDS011;63902;52.000;5.954;2024-03-23T03:01:53;26.08;;;9.57;;
67930;SDS011;63902;52.000;5.954;2024-03-23T03:02:53;21.15;;;8.65;;
67930;SDS011;63902;52.000;5.954;2024-03-23T03:03:54;23.50;;;9.80;;
67930;SDS011;63902;52.000;5.954;2024-03-23T03:04:54;27.70;;;8.52;;
67930;SDS011;63902;52.000;5.954;2024-03-23T03:05:55;21.23;;;9.27;;
67930;SDS011;63902;52.000;5.954;2024-03-23T03:06:56;23.80;;;9.15;;
67930;SDS011;63902;52.000;5.954;2024-03-23T03:07:56;26.98;;;8.68;;
67930;SDS011;63902;52.000;5.954;2024-03-23T03:08:57;29.52;;;8.45;;
67930;SDS011;63902;52.000;5.954;2024-03-23T03:09:57;28.13;;;9.95;;
67930;SDS011;63902;52.000;5.954;2024-03-23T03:10:57;21.52;;;8.80;;
67930;SDS011;63902;52.000;5.954;2024-03-23T03:11:58;28.65;;;9.73;;
67930;SDS011;63902;52.000;5.954;2024-03-23T03:12:58;15.70;;;8.30;;
67930;SDS011;63902;52.000;5.954;2024-03-23T03:13:58;24.02;;;9.05;;
67930;SDS011;63902;52.000;5.954;2024-03-23T03:14:59;24.08;;;9.27;;
67930;SDS011;63902;52.000;5.954;2024-03-23T03:15:59;27.40;;;9.45;;
67930;SDS011;63902;52.000;5.954;2024-03-23T03:16:59;24.30;;;9.35;;
67930;SDS011;63902;52.000;5.954;2024-03-23T03:18:00;19.63;;;8.63;;
67930;SDS011;63902;52.000;5.954;2024-03-23T03:19:00;23.23;;;9.50;;
67930;SDS011;63902;52.000;5.954;2024-03-23T03:20:01;29.40;;;9.13;;
67930;SDS011;63902;52.000;5.954;2024-03-23T03:21:01;22.63;;;9.02;;
67930;SDS011;63902;52.000;5.954;2024-03-23T03:22:01;31.13;;;8.93;;
67930;SDS011;63902;52.000;5.954;2024-03-23T03:23:02;23.92;;;9.90;;
67930;SDS011;63902;52.000;5.954;2024-03-23T03:24:02;24.38;;;9.27;;
67930;SDS011;63902;52.000;5.954;2024-03-23T03:25:03;29.40;;;10.35;;
67930;SDS011;63902;52.000;5.954;2024-03-23T03:26:04;23.85;;;9.02;;
67930;SDS011;63902;52.000;5.954;2024-03-23T03:27:04;33.65;;;8.88;;
67930;SDS011;63902;52.000;5.954;2024-03-23T03:28:05;24.50;;;9.63;;
67930;SDS011;63902;52.000;5.954;2024-03-23T03:29:05;23.92;;;9.45;;
67930;SDS011;63902;52.000;5.954;2024-03-23T03:30:05;20.95;;;8.90;;
67930;SDS011;63902;52.000;5.954;2024-03-23T03:31:06;28.55;;;9.77;;
67930;SDS011;63902;52.000;5.954;2024-03-23T03:32:06;24.58;;;9.95;;
67930;SDS011;63902;52.000;5.954;2024-03-23T03:33:07;24.80;;;9.57;;
67930;SDS011;63902;52.000;5.954;2024-03-23T03:34:07;36.00;;;10.23;;
67930;SDS011;63902;52.000;5.954;2024-03-23T03:35:07;23.20;;;9.13;;
67930;SDS011;63902;52.000;5.954;2024-03-23T03:36:08;24.65;;;8.35;;
67930;SDS011;63902;52.000;5.954;2024-03-23T03:37:08;28.27;;;9.00;;
67930;SDS011;63902;52.000;5.954;2024-03-23T03:38:09;23.73;;;9.32;;
67930;SDS011;63902;52.000;5.954;2024-03-23T03:39:09;20.30;;;9.30;;
67930;SDS011;63902;52.000;5.954;2024-03-23T03:40:09;25.25;;;7.80;;
67930;SDS011;63902;52.000;5.954;2024-03-23T03:41:10;28.10;;;8.55;;
67930;SDS011;63902;52.000;5.954;2024-03-23T03:42:11;21.83;;;8.52;;
67930;SDS011;63902;52.000;5.954;2024-03-23T03:43:11;30.33;;;8.70;;
67930;SDS011;63902;52.000;5.954;2024-03-23T03:44:11;23.70;;;8.63;;
67930;SDS011;63902;52.000;5.954;2024-03-23T03:45:12;27.05;;;8.80;;
67930;SDS011;63902;52.000;5.954;2024-03-23T03:46:12;26.17;;;9.82;;
67930;SDS011;63902;52.000;5.954;2024-03-23T03:47:12;24.52;;;9.70;;
67930;SDS011;63902;52.000;5.954;2024-03-23T03:48:13;19.65;;;8.70;;
67930;SDS011;63902;52.000;5.954;2024-03-23T03:49:13;26.67;;;9.68;;
67930;SDS011;63902;52.000;5.954;2024-03-23T03:50:13;22.45;;;7.75;;
67930;SDS011;63902;52.000;5.954;2024-03-23T03:51:14;27.63;;;8.68;;
67930;SDS011;63902;52.000;5.954;2024-03-23T03:52:14;16.83;;;7.85;;
67930;SDS011;63902;52.000;5.954;2024-03-23T03:53:15;25.60;;;8.13;;
67930;SDS011;63902;52.000;5.954;2024-03-23T03:54:15;21.55;;;8.55;;
67930;SDS011;63902;52.000;5.954;2024-03-23T03:55:15;20.88;;;8.05;;
67930;SDS011;63902;52.000;5.954;2024-03-23T03:56:16;17.90;;;8.13;;
67930;SDS011;63902;52.000;5.954;2024-03-23T03:57:16;24.55;;;7.60;;
67930;SDS011;63902;52.000;5.954;2024-03-23T03:58:16;25.70;;;7.53;;
67930;SDS011;63902;52.000;5.954;2024-03-23T03:59:17;23.92;;;7.80;;
67930;SDS011;63902;52.000;5.954;2024-03-23T04:00:17;20.38;;;7.65;;
67930;SDS011;63902;52.000;5.954;2024-03-23T04:01:18;14.98;;;7.10;;
67930;SDS011;63902;52.000;5.954;2024-03-23T04:02:18;25.20;;;8.20;;
67930;SDS011;63902;52.000;5.954;2024-03-23T04:03:19;18.50;;;7.32;;
67930;SDS011;63902;52.000;5.954;2024-03-23T04:04:19;27.25;;;8.85;;
67930;SDS011;63902;52.000;5.954;2024-03-23T04:05:19;18.58;;;7.53;;
67930;SDS011;63902;52.000;5.954;2024-03-23T04:06:20;18.73;;;8.23;;
67930;SDS011;63902;52.000;5.954;2024-03-23T04:07:20;17.38;;;7.47;;
67930;SDS011;63902;52.000;5.954;2024-03-23T04:08:21;19.45;;;7.32;;
67930;SDS011;63902;52.000;5.954;2024-03-23T04:09:21;23.92;;;7.43;;
67930;SDS011;63902;52.000;5.954;2024-03-23T04:10:22;36.58;;;7.43;;
67930;SDS011;63902;52.000;5.954;2024-03-23T04:11:22;24.40;;;7.53;;
67930;SDS011;63902;52.000;5.954;2024-03-23T04:12:23;17.02;;;7.43;;
67930;SDS011;63902;52.000;5.954;2024-03-23T04:13:23;16.90;;;7.85;;
67930;SDS011;63902;52.000;5.954;2024-03-23T04:14:24;23.08;;;8.02;;
67930;SDS011;63902;52.000;5.954;2024-03-23T04:15:24;18.70;;;7.65;;
67930;SDS011;63902;52.000;5.954;2024-03-23T04:16:33;22.42;;;8.23;;
67930;SDS011;63902;52.000;5.954;2024-03-23T04:17:34;21.67;;;7.40;;
67930;SDS011;63902;52.000;5.954;2024-03-23T04:18:35;23.63;;;7.70;;
67930;SDS011;63902;52.000;5.954;2024-03-23T04:19:35;24.15;;;8.77;;
67930;SDS011;63902;52.000;5.954;2024-03-23T04:20:36;20.98;;;8.05;;
67930;SDS011;63902;52.000;5.954;2024-03-23T04:21:37;18.92;;;8.23;;
67930;SDS011;63902;52.000;5.954;2024-03-23T04:22:37;23.08;;;8.15;;
67930;SDS011;63902;52.000;5.954;2024-03-23T04:23:38;26.70;;;7.68;;
67930;SDS011;63902;52.000;5.954;2024-03-23T04:24:38;17.77;;;7.07;;
67930;SDS011;63902;52.000;5.954;2024-03-23T04:25:38;20.80;;;8.32;;
67930;SDS011;63902;52.000;5.954;2024-03-23T04:26:42;16.45;;;7.78;;
67930;SDS011;63902;52.000;5.954;2024-03-23T04:27:43;25.05;;;7.22;;
67930;SDS011;63902;52.000;5.954;2024-03-23T04:28:43;17.23;;;7.53;;
67930;SDS011;63902;52.000;5.954;2024-03-23T04:29:47;14.70;;;6.55;;
67930;SDS011;63902;52.000;5.954;2024-03-23T04:30:50;24.83;;;7.45;;
67930;SDS011;63902;52.000;5.954;2024-03-23T04:31:51;20.48;;;6.88;;
67930;SDS011;63902;52.000;5.954;2024-03-23T04:32:51;19.50;;;7.63;;
67930;SDS011;63902;52.000;5.954;2024-03-23T04:33:51;26.15;;;7.00;;
67930;SDS011;63902;52.000;5.954;2024-03-23T04:34:52;18.40;;;6.35;;
67930;SDS011;63902;52.000;5.954;2024-03-23T04:35:52;23.33;;;7.35;;
67930;SDS011;63902;52.000;5.954;2024-03-23T04:36:52;24.00;;;7.70;;
67930;SDS011;63902;52.000;5.954;2024-03-23T04:37:53;20.42;;;6.85;;
67930;SDS011;63902;52.000;5.954;2024-03-23T04:38:53;18.58;;;6.13;;
67930;SDS011;63902;52.000;5.954;2024-03-23T04:39:54;17.30;;;5.88;;
67930;SDS011;63902;52.000;5.954;2024-03-23T04:40:57;20.85;;;6.85;;
67930;SDS011;63902;52.000;5.954;2024-03-23T04:41:58;18.58;;;6.53;;
67930;SDS011;63902;52.000;5.954;2024-03-23T04:42:59;19.75;;;6.88;;
67930;SDS011;63902;52.000;5.954;2024-03-23T04:43:59;19.27;;;7.13;;
67930;SDS011;63902;52.000;5.954;2024-03-23T04:45:00;20.92;;;6.60;;
67930;SDS011;63902;52.000;5.954;2024-03-23T04:46:00;21.38;;;6.20;;
67930;SDS011;63902;52.000;5.954;2024-03-23T04:47:00;17.23;;;6.78;;
67930;SDS011;63902;52.000;5.954;2024-03-23T04:48:01;23.50;;;6.43;;
67930;SDS011;63902;52.000;5.954;2024-03-23T04:49:01;19.50;;;6.18;;
67930;SDS011;63902;52.000;5.954;2024-03-23T04:50:02;17.02;;;6.30;;
67930;SDS011;63902;52.000;5.954;2024-03-23T04:51:03;16.83;;;6.78;;
67930;SDS011;63902;52.000;5.954;2024-03-23T04:52:04;18.05;;;7.35;;
67930;SDS011;63902;52.000;5.954;2024-03-23T04:53:04;22.50;;;6.28;;
67930;SDS011;63902;52.000;5.954;2024-03-23T04:54:05;17.75;;;6.80;;
67930;SDS011;63902;52.000;5.954;2024-03-23T04:55:05;16.63;;;6.07;;
67930;SDS011;63902;52.000;5.954;2024-03-23T04:56:05;14.55;;;6.15;;
67930;SDS011;63902;52.000;5.954;2024-03-23T04:57:06;19.77;;;6.20;;
67930;SDS011;63902;52.000;5.954;2024-03-23T04:58:06;21.92;;;6.07;;
67930;SDS011;63902;52.000;5.954;2024-03-23T04:59:07;17.75;;;6.57;;
67930;SDS011;63902;52.000;5.954;2024-03-23T05:00:07;8.85;;;5.13;;
67930;SDS011;63902;52.000;5.954;2024-03-23T05:01:08;19.13;;;6.32;;
67930;SDS011;63902;52.000;5.954;2024-03-23T05:02:08;14.48;;;4.78;;
67930;SDS011;63902;52.000;5.954;2024-03-23T05:03:08;15.52;;;5.47;;
67930;SDS011;63902;52.000;5.954;2024-03-23T05:04:09;23.23;;;5.57;;
67930;SDS011;63902;52.000;5.954;2024-03-23T05:05:09;19.58;;;5.32;;
67930;SDS011;63902;52.000;5.954;2024-03-23T05:06:09;14.93;;;5.10;;
67930;SDS011;63902;52.000;5.954;2024-03-23T05:07:10;19.15;;;5.18;;
67930;SDS011;63902;52.000;5.954;2024-03-23T05:08:10;15.18;;;5.75;;
67930;SDS011;63902;52.000;5.954;2024-03-23T05:09:10;14.00;;;4.80;;
67930;SDS011;63902;52.000;5.954;2024-03-23T05:10:11;19.58;;;6.60;;
67930;SDS011;63902;52.000;5.954;2024-03-23T05:11:11;16.35;;;5.07;;
67930;SDS011;63902;52.000;5.954;2024-03-23T05:12:11;22.77;;;5.18;;
67930;SDS011;63902;52.000;5.954;2024-03-23T05:13:12;17.08;;;4.68;;
67930;SDS011;63902;52.000;5.954;2024-03-23T05:14:13;26.13;;;7.15;;
67930;SDS011;63902;52.000;5.954;2024-03-23T05:15:13;21.05;;;5.20;;
67930;SDS011;63902;52.000;5.954;2024-03-23T05:16:14;17.10;;;5.78;;
67930;SDS011;63902;52.000;5.954;2024-03-23T05:17:14;18.15;;;5.72;;
67930;SDS011;63902;52.000;5.954;2024-03-23T05:18:14;14.70;;;4.47;;
67930;SDS011;63902;52.000;5.954;2024-03-23T05:19:15;16.00;;;5.35;;
67930;SDS011;63902;52.000;5.954;2024-03-23T05:20:15;12.40;;;4.95;;
67930;SDS011;63902;52.000;5.954;2024-03-23T05:21:15;13.70;;;4.68;;
67930;SDS011;63902;52.000;5.954;2024-03-23T05:22:16;20.38;;;5.25;;
67930;SDS011;63902;52.000;5.954;2024-03-23T05:23:16;19.42;;;6.20;;
67930;SDS011;63902;52.000;5.954;2024-03-23T05:24:16;16.08;;;5.15;;
67930;SDS011;63902;52.000;5.954;2024-03-23T05:25:16;18.48;;;4.90;;
67930;SDS011;63902;52.000;5.954;2024-03-23T05:26:17;9.38;;;4.63;;
67930;SDS011;63902;52.000;5.954;2024-03-23T05:27:17;23.60;;;5.78;;
67930;SDS011;63902;52.000;5.954;2024-03-23T05:28:18;17.80;;;4.68;;
67930;SDS011;63902;52.000;5.954;2024-03-23T05:29:18;19.05;;;4.80;;
67930;SDS011;63902;52.000;5.954;2024-03-23T05:30:18;17.10;;;5.05;;
67930;SDS011;63902;52.000;5.954;2024-03-23T05:31:25;14.68;;;5.22;;
67930;SDS011;63902;52.000;5.954;2024-03-23T05:32:26;15.23;;;4.65;;
67930;SDS011;63902;52.000;5.954;2024-03-23T05:33:27;17.75;;;5.60;;
67930;SDS011;63902;52.000;5.954;2024-03-23T05:34:27;16.58;;;5.45;;
67930;SDS011;63902;52.000;5.954;2024-03-23T05:35:27;16.35;;;4.90;;
67930;SDS011;63902;52.000;5.954;2024-03-23T05:36:28;12.32;;;4.45;;
67930;SDS011;63902;52.000;5.954;2024-03-23T05:37:28;14.10;;;4.55;;
67930;SDS011;63902;52.000;5.954;2024-03-23T05:38:28;21.70;;;5.38;;
67930;SDS011;63902;52.000;5.954;2024-03-23T05:39:29;12.15;;;4.63;;
67930;SDS011;63902;52.000;5.954;2024-03-23T05:40:29;18.73;;;5.15;;
67930;SDS011;63902;52.000;5.954;2024-03-23T05:41:29;21.63;;;4.20;;
67930;SDS011;63902;52.000;5.954;2024-03-23T05:42:29;17.42;;;4.45;;
67930;SDS011;63902;52.000;5.954;2024-03-23T05:43:30;14.75;;;4.22;;
67930;SDS011;63902;52.000;5.954;2024-03-23T05:44:30;11.02;;;4.68;;
67930;SDS011;63902;52.000;5.954;2024-03-23T05:45:30;11.70;;;4.38;;
67930;SDS011;63902;52.000;5.954;2024-03-23T05:46:31;18.33;;;4.18;;
67930;SDS011;63902;52.000;5.954;2024-03-23T05:47:31;10.68;;;4.47;;
67930;SDS011;63902;52.000;5.954;2024-03-23T05:48:31;28.90;;;5.38;;
67930;SDS011;63902;52.000;5.954;2024-03-23T05:49:32;14.18;;;4.30;;
67930;SDS011;63902;52.000;5.954;2024-03-23T05:50:32;13.23;;;4.00;;
67930;SDS011;63902;52.000;5.954;2024-03-23T05:51:32;16.33;;;4.82;;
67930;SDS011;63902;52.000;5.954;2024-03-23T05:52:33;11.25;;;4.38;;
67930;SDS011;63902;52.000;5.954;2024-03-23T05:53:33;15.30;;;4.53;;
67930;SDS011;63902;52.000;5.954;2024-03-23T05:54:34;12.25;;;3.78;;
67930;SDS011;63902;52.000;5.954;2024-03-23T05:55:35;19.23;;;4.22;;
67930;SDS011;63902;52.000;5.954;2024-03-23T05:56:35;15.65;;;3.47;;
67930;SDS011;63902;52.000;5.954;2024-03-23T05:57:36;14.77;;;4.03;;
67930;SDS011;63902;52.000;5.954;2024-03-23T05:58:36;22.92;;;4.75;;
67930;SDS011;63902;52.000;5.954;2024-03-23T05:59:36;15.48;;;3.97;;
67930;SDS011;63902;52.000;5.954;2024-03-23T06:00:37;16.73;;;5.05;;
67930;SDS011;63902;52.000;5.954;2024-03-23T06:01:37;13.73;;;3.50;;
67930;SDS011;63902;52.000;5.954;2024-03-23T06:02:37;14.50;;;4.40;;
67930;SDS011;63902;52.000;5.954;2024-03-23T06:03:38;16.15;;;3.97;;
67930;SDS011;63902;52.000;5.954;2024-03-23T06:04:38;13.93;;;4.13;;
67930;SDS011;63902;52.000;5.954;2024-03-23T06:05:38;11.02;;;3.67;;
67930;SDS011;63902;52.000;5.954;2024-03-23T06:06:40;14.80;;;4.93;;
67930;SDS011;63902;52.000;5.954;2024-03-23T06:07:40;17.30;;;3.63;;
67930;SDS011;63902;52.000;5.954;2024-03-23T06:08:40;11.32;;;3.00;;
67930;SDS011;63902;52.000;5.954;2024-03-23T06:09:41;18.40;;;4.10;;
67930;SDS011;63902;52.000;5.954;2024-03-23T06:10:42;13.75;;;3.72;;
67930;SDS011;63902;52.000;5.954;2024-03-23T06:11:42;11.98;;;3.25;;
67930;SDS011;63902;52.000;5.954;2024-03-23T06:12:42;14.50;;;3.88;;
67930;SDS011;63902;52.000;5.954;2024-03-23T06:13:43;9.68;;;3.10;;
67930;SDS011;63902;52.000;5.954;2024-03-23T06:14:43;15.48;;;3.35;;
67930;SDS011;63902;52.000;5.954;2024-03-23T06:15:43;16.08;;;3.78;;
67930;SDS011;63902;52.000;5.954;2024-03-23T06:16:44;11.98;;;3.40;;
67930;SDS011;63902;52.000;5.954;2024-03-23T06:17:44;13.75;;;3.13;;
67930;SDS011;63902;52.000;5.954;2024-03-23T06:18:44;14.88;;;3.50;;
67930;SDS011;63902;52.000;5.954;2024-03-23T06:19:45;15.07;;;3.72;;
67930;SDS011;63902;52.000;5.954;2024-03-23T06:20:46;10.60;;;3.30;;
67930;SDS011;63902;52.000;5.954;2024-03-23T06:21:46;14.50;;;3.38;;
67930;SDS011;63902;52.000;5.954;2024-03-23T06:22:46;10.95;;;3.30;;
67930;SDS011;63902;52.000;5.954;2024-03-23T06:23:47;11.35;;;3.50;;
67930;SDS011;63902;52.000;5.954;2024-03-23T06:24:47;9.20;;;2.80;;
67930;SDS011;63902;52.000;5.954;2024-03-23T06:25:47;8.98;;;3.50;;
67930;SDS011;63902;52.000;5.954;2024-03-23T06:26:48;10.82;;;2.83;;
67930;SDS011;63902;52.000;5.954;2024-03-23T06:27:48;11.25;;;4.05;;
67930;SDS011;63902;52.000;5.954;2024-03-23T06:28:48;9.10;;;3.10;;
67930;SDS011;63902;52.000;5.954;2024-03-23T06:29:49;9.40;;;3.60;;
67930;SDS011;63902;52.000;5.954;2024-03-23T06:30:49;10.57;;;3.63;;
67930;SDS011;63902;52.000;5.954;2024-03-23T06:31:55;11.23;;;3.25;;
67930;SDS011;63902;52.000;5.954;2024-03-23T06:32:55;10.60;;;2.92;;
67930;SDS011;63902;52.000;5.954;2024-03-23T06:33:56;13.10;;;2.65;;
67930;SDS011;63902;52.000;5.954;2024-03-23T06:34:56;9.57;;;3.13;;
67930;SDS011;63902;52.000;5.954;2024-03-23T06:35:56;15.68;;;3.22;;
67930;SDS011;63902;52.000;5.954;2024-03-23T06:36:57;14.98;;;3.00;;
67930;SDS011;63902;52.000;5.954;2024-03-23T06:37:57;15.10;;;3.72;;
67930;SDS011;63902;52.000;5.954;2024-03-23T06:38:57;9.80;;;2.70;;
67930;SDS011;63902;52.000;5.954;2024-03-23T06:39:58;13.52;;;3.45;;
67930;SDS011;63902;52.000;5.954;2024-03-23T06:40:58;6.80;;;2.67;;
67930;SDS011;63902;52.000;5.954;2024-03-23T06:41:58;18.83;;;3.22;;
67930;SDS011;63902;52.000;5.954;2024-03-23T06:42:59;5.80;;;2.00;;
67930;SDS011;63902;52.000;5.954;2024-03-23T06:43:59;15.45;;;3.25;;
67930;SDS011;63902;52.000;5.954;2024-03-23T06:44:59;11.70;;;3.25;;
67930;SDS011;63902;52.000;5.954;2024-03-23T06:46:00;9.23;;;3.25;;
67930;SDS011;63902;52.000;5.954;2024-03-23T06:47:00;18.95;;;3.47;;
67930;SDS011;63902;52.000;5.954;2024-03-23T06:48:00;16.73;;;2.80;;
67930;SDS011;63902;52.000;5.954;2024-03-23T06:49:00;11.98;;;2.83;;
67930;SDS011;63902;52.000;5.954;2024-03-23T06:50:02;11.23;;;2.45;;
67930;SDS011;63902;52.000;5.954;2024-03-23T06:51:03;11.02;;;2.75;;
67930;SDS011;63902;52.000;5.954;2024-03-23T06:52:03;11.45;;;3.20;;
67930;SDS011;63902;52.000;5.954;2024-03-23T06:53:04;7.63;;;2.30;;